sensor_id;sensor_type;location;lat;lon;timestamp;temperature;humidity
20380;DHT22;10349;48.666;8.948;2023-02-24T00:01:52;7.10;99.90
20380;DHT22;10349;48.666;8.948;2023-02-24T00:04:24;7.10;99.90
20380;DHT22;10349;48.666;8.948;2023-02-24T00:06:50;7.00;99.90
20380;DHT22;10349;48.666;8.948;2023-02-24T00:09:18;7.00;99.90
20380;DHT22;10349;48.666;8.948;2023-02-24T00:11:51;7.00;99.90
20380;DHT22;10349;48.666;8.948;2023-02-24T00:14:16;6.90;99.90
20380;DHT22;10349;48.666;8.948;2023-02-24T00:16:44;6.90;99.90
20380;DHT22;10349;48.666;8.948;2023-02-24T00:19:13;7.00;99.90
20380;DHT22;10349;48.666;8.948;2023-02-24T00:21:39;6.80;99.90
20380;DHT22;10349;48.666;8.948;2023-02-24T00:24:05;6.80;99.90
20380;DHT22;10349;48.666;8.948;2023-02-24T00:26:32;6.80;99.90
20380;DHT22;10349;48.666;8.948;2023-02-24T00:28:58;6.80;99.90
20380;DHT22;10349;48.666;8.948;2023-02-24T00:31:26;6.80;99.90
20380;DHT22;10349;48.666;8.948;2023-02-24T00:33:59;6.90;99.90
20380;DHT22;10349;48.666;8.948;2023-02-24T00:36:27;6.80;99.90
20380;DHT22;10349;48.666;8.948;2023-02-24T00:39:02;6.80;99.90
20380;DHT22;10349;48.666;8.948;2023-02-24T00:41:38;6.80;99.90
20380;DHT22;10349;48.666;8.948;2023-02-24T00:44:06;6.70;99.90
20380;DHT22;10349;48.666;8.948;2023-02-24T00:46:44;6.70;99.90
20380;DHT22;10349;48.666;8.948;2023-02-24T00:49:16;6.80;99.90
20380;DHT22;10349;48.666;8.948;2023-02-24T00:51:44;6.70;99.90
20380;DHT22;10349;48.666;8.948;2023-02-24T00:54:12;6.70;99.90
20380;DHT22;10349;48.666;8.948;2023-02-24T00:56:40;6.70;99.90
20380;DHT22;10349;48.666;8.948;2023-02-24T00:59:07;6.80;99.90
20380;DHT22;10349;48.666;8.948;2023-02-24T01:01:34;6.80;99.90
20380;DHT22;10349;48.666;8.948;2023-02-24T01:04:02;6.90;99.90
20380;DHT22;10349;48.666;8.948;2023-02-24T01:06:32;7.00;99.90
20380;DHT22;10349;48.666;8.948;2023-02-24T01:08:58;6.90;99.90
20380;DHT22;10349;48.666;8.948;2023-02-24T01:11:31;6.90;99.90
20380;DHT22;10349;48.666;8.948;2023-02-24T01:14:18;6.90;99.90
20380;DHT22;10349;48.666;8.948;2023-02-24T01:16:44;6.90;99.90
20380;DHT22;10349;48.666;8.948;2023-02-24T01:19:16;6.90;99.90
20380;DHT22;10349;48.666;8.948;2023-02-24T01:21:42;6.90;99.90
20380;DHT22;10349;48.666;8.948;2023-02-24T01:24:08;7.00;99.90
20380;DHT22;10349;48.666;8.948;2023-02-24T01:26:35;7.00;99.90
20380;DHT22;10349;48.666;8.948;2023-02-24T01:29:01;7.00;99.90
20380;DHT22;10349;48.666;8.948;2023-02-24T01:31:29;7.00;99.90
20380;DHT22;10349;48.666;8.948;2023-02-24T01:33:55;6.90;99.90
20380;DHT22;10349;48.666;8.948;2023-02-24T01:36:23;7.00;99.90
20380;DHT22;10349;48.666;8.948;2023-02-24T01:38:53;6.90;99.90
20380;DHT22;10349;48.666;8.948;2023-02-24T01:41:22;7.00;99.90
20380;DHT22;10349;48.666;8.948;2023-02-24T01:46:40;7.10;99.90
20380;DHT22;10349;48.666;8.948;2023-02-24T01:51:48;7.20;99.90
20380;DHT22;10349;48.666;8.948;2023-02-24T01:54:17;7.20;99.90
20380;DHT22;10349;48.666;8.948;2023-02-24T01:56:46;7.30;99.90
20380;DHT22;10349;48.666;8.948;2023-02-24T01:59:14;7.20;99.90
20380;DHT22;10349;48.666;8.948;2023-02-24T02:01:44;7.20;99.90
20380;DHT22;10349;48.666;8.948;2023-02-24T02:04:37;7.20;99.90
20380;DHT22;10349;48.666;8.948;2023-02-24T02:07:05;7.30;99.90
20380;DHT22;10349;48.666;8.948;2023-02-24T02:09:34;7.20;99.90
20380;DHT22;10349;48.666;8.948;2023-02-24T02:12:00;7.20;99.90
20380;DHT22;10349;48.666;8.948;2023-02-24T02:14:30;7.30;99.90
20380;DHT22;10349;48.666;8.948;2023-02-24T02:17:21;7.20;99.90
20380;DHT22;10349;48.666;8.948;2023-02-24T02:31:21;7.30;99.90
20380;DHT22;10349;48.666;8.948;2023-02-24T02:34:08;7.20;99.90
20380;DHT22;10349;48.666;8.948;2023-02-24T02:39:51;7.20;99.90
20380;DHT22;10349;48.666;8.948;2023-02-24T02:47:53;7.30;99.90
20380;DHT22;10349;48.666;8.948;2023-02-24T02:50:40;7.30;99.90
20380;DHT22;10349;48.666;8.948;2023-02-24T02:53:23;7.30;99.90
20380;DHT22;10349;48.666;8.948;2023-02-24T02:56:02;7.30;99.90
20380;DHT22;10349;48.666;8.948;2023-02-24T02:58:35;7.20;99.90
20380;DHT22;10349;48.666;8.948;2023-02-24T03:01:03;7.20;99.90
20380;DHT22;10349;48.666;8.948;2023-02-24T03:03:43;7.10;99.90
20380;DHT22;10349;48.666;8.948;2023-02-24T03:06:24;7.10;99.90
20380;DHT22;10349;48.666;8.948;2023-02-24T03:09:03;7.20;99.90
20380;DHT22;10349;48.666;8.948;2023-02-24T03:11:59;7.20;99.90
20380;DHT22;10349;48.666;8.948;2023-02-24T03:14:31;7.20;99.90
20380;DHT22;10349;48.666;8.948;2023-02-24T03:17:06;7.20;99.90
20380;DHT22;10349;48.666;8.948;2023-02-24T03:19:36;7.20;99.90
20380;DHT22;10349;48.666;8.948;2023-02-24T03:22:13;7.20;99.90
20380;DHT22;10349;48.666;8.948;2023-02-24T03:24:41;7.30;99.90
20380;DHT22;10349;48.666;8.948;2023-02-24T03:29:54;7.30;99.90
20380;DHT22;10349;48.666;8.948;2023-02-24T03:32:28;7.20;99.90
20380;DHT22;10349;48.666;8.948;2023-02-24T03:35:08;7.20;99.90
20380;DHT22;10349;48.666;8.948;2023-02-24T03:37:37;7.30;99.90
20380;DHT22;10349;48.666;8.948;2023-02-24T03:40:07;7.30;99.90
20380;DHT22;10349;48.666;8.948;2023-02-24T03:43:00;7.30;99.90
20380;DHT22;10349;48.666;8.948;2023-02-24T03:45:34;7.30;99.90
20380;DHT22;10349;48.666;8.948;2023-02-24T03:48:04;7.30;99.90
20380;DHT22;10349;48.666;8.948;2023-02-24T03:50:32;7.30;99.90
20380;DHT22;10349;48.666;8.948;2023-02-24T03:53:39;7.30;99.90
20380;DHT22;10349;48.666;8.948;2023-02-24T03:56:27;7.40;99.90
20380;DHT22;10349;48.666;8.948;2023-02-24T04:02:37;7.40;99.90
20380;DHT22;10349;48.666;8.948;2023-02-24T04:08:03;7.40;99.90
20380;DHT22;10349;48.666;8.948;2023-02-24T04:10:40;7.40;99.90
20380;DHT22;10349;48.666;8.948;2023-02-24T04:13:43;7.30;99.90
20380;DHT22;10349;48.666;8.948;2023-02-24T04:16:32;7.40;99.90
20380;DHT22;10349;48.666;8.948;2023-02-24T04:19:12;7.40;99.90
20380;DHT22;10349;48.666;8.948;2023-02-24T04:21:41;7.40;99.90
20380;DHT22;10349;48.666;8.948;2023-02-24T04:24:11;7.50;99.90
20380;DHT22;10349;48.666;8.948;2023-02-24T04:26:44;7.40;99.90
20380;DHT22;10349;48.666;8.948;2023-02-24T04:29:16;7.40;99.90
20380;DHT22;10349;48.666;8.948;2023-02-24T04:32:05;7.40;99.90
20380;DHT22;10349;48.666;8.948;2023-02-24T04:34:32;7.40;99.90
20380;DHT22;10349;48.666;8.948;2023-02-24T04:36:58;7.40;99.90
20380;DHT22;10349;48.666;8.948;2023-02-24T04:39:27;7.30;99.90
20380;DHT22;10349;48.666;8.948;2023-02-24T04:41:56;7.30;99.90
20380;DHT22;10349;48.666;8.948;2023-02-24T04:44:23;7.40;99.90
20380;DHT22;10349;48.666;8.948;2023-02-24T04:46:49;7.40;99.90
20380;DHT22;10349;48.666;8.948;2023-02-24T04:49:17;7.30;99.90
20380;DHT22;10349;48.666;8.948;2023-02-24T04:51:44;7.30;99.90
20380;DHT22;10349;48.666;8.948;2023-02-24T04:54:17;7.30;99.90
20380;DHT22;10349;48.666;8.948;2023-02-24T04:56:51;7.20;99.90
20380;DHT22;10349;48.666;8.948;2023-02-24T04:59:17;7.20;99.90
20380;DHT22;10349;48.666;8.948;2023-02-24T05:01:44;7.10;99.90
20380;DHT22;10349;48.666;8.948;2023-02-24T05:04:12;7.10;99.90
20380;DHT22;10349;48.666;8.948;2023-02-24T05:06:42;7.10;99.90
20380;DHT22;10349;48.666;8.948;2023-02-24T05:09:15;7.10;99.90
20380;DHT22;10349;48.666;8.948;2023-02-24T05:11:43;7.00;99.90
20380;DHT22;10349;48.666;8.948;2023-02-24T05:14:14;7.00;99.90
20380;DHT22;10349;48.666;8.948;2023-02-24T05:16:41;7.00;99.90
20380;DHT22;10349;48.666;8.948;2023-02-24T05:19:12;7.00;99.90
20380;DHT22;10349;48.666;8.948;2023-02-24T05:21:56;7.00;99.90
20380;DHT22;10349;48.666;8.948;2023-02-24T05:24:23;7.10;99.90
20380;DHT22;10349;48.666;8.948;2023-02-24T05:26:50;7.10;99.90
20380;DHT22;10349;48.666;8.948;2023-02-24T05:29:26;7.00;99.90
20380;DHT22;10349;48.666;8.948;2023-02-24T05:31:56;7.10;99.90
20380;DHT22;10349;48.666;8.948;2023-02-24T05:34:27;7.10;99.90
20380;DHT22;10349;48.666;8.948;2023-02-24T05:36:56;7.10;99.90
20380;DHT22;10349;48.666;8.948;2023-02-24T05:39:22;7.10;99.90
20380;DHT22;10349;48.666;8.948;2023-02-24T05:41:51;7.10;99.90
20380;DHT22;10349;48.666;8.948;2023-02-24T05:44:20;7.00;99.90
20380;DHT22;10349;48.666;8.948;2023-02-24T05:46:52;7.10;99.90
20380;DHT22;10349;48.666;8.948;2023-02-24T05:49:25;7.00;99.90
20380;DHT22;10349;48.666;8.948;2023-02-24T05:51:55;7.00;99.90
20380;DHT22;10349;48.666;8.948;2023-02-24T05:54:24;7.00;99.90
20380;DHT22;10349;48.666;8.948;2023-02-24T05:56:57;7.00;99.90
20380;DHT22;10349;48.666;8.948;2023-02-24T05:59:23;7.10;99.90
20380;DHT22;10349;48.666;8.948;2023-02-24T06:01:49;7.00;99.90
20380;DHT22;10349;48.666;8.948;2023-02-24T06:04:18;7.00;99.90
20380;DHT22;10349;48.666;8.948;2023-02-24T06:07:04;7.00;99.90
20380;DHT22;10349;48.666;8.948;2023-02-24T06:09:29;7.00;99.90
20380;DHT22;10349;48.666;8.948;2023-02-24T06:11:55;7.00;99.90
20380;DHT22;10349;48.666;8.948;2023-02-24T06:14:21;7.00;99.90
20380;DHT22;10349;48.666;8.948;2023-02-24T06:16:46;7.00;99.90
20380;DHT22;10349;48.666;8.948;2023-02-24T06:19:12;7.00;99.90
20380;DHT22;10349;48.666;8.948;2023-02-24T06:21:40;7.00;99.90
20380;DHT22;10349;48.666;8.948;2023-02-24T06:24:10;7.00;99.90
20380;DHT22;10349;48.666;8.948;2023-02-24T06:26:42;7.00;99.90
20380;DHT22;10349;48.666;8.948;2023-02-24T06:29:16;7.00;99.90
20380;DHT22;10349;48.666;8.948;2023-02-24T06:31:42;7.00;99.90
20380;DHT22;10349;48.666;8.948;2023-02-24T06:34:09;7.00;99.90
20380;DHT22;10349;48.666;8.948;2023-02-24T06:36:39;7.00;99.90
20380;DHT22;10349;48.666;8.948;2023-02-24T06:39:05;7.00;99.90
20380;DHT22;10349;48.666;8.948;2023-02-24T06:41:35;7.10;99.90
20380;DHT22;10349;48.666;8.948;2023-02-24T06:44:02;7.00;99.90
20380;DHT22;10349;48.666;8.948;2023-02-24T06:46:28;7.00;99.90
20380;DHT22;10349;48.666;8.948;2023-02-24T06:48:54;7.00;99.90
20380;DHT22;10349;48.666;8.948;2023-02-24T06:51:20;7.00;99.90
20380;DHT22;10349;48.666;8.948;2023-02-24T06:53:47;7.00;99.90
20380;DHT22;10349;48.666;8.948;2023-02-24T06:56:15;6.90;99.90
20380;DHT22;10349;48.666;8.948;2023-02-24T06:58:49;7.00;99.90
20380;DHT22;10349;48.666;8.948;2023-02-24T07:01:24;7.00;99.90
20380;DHT22;10349;48.666;8.948;2023-02-24T07:03:52;7.00;99.90
20380;DHT22;10349;48.666;8.948;2023-02-24T07:06:27;7.00;99.90
20380;DHT22;10349;48.666;8.948;2023-02-24T07:08:56;7.00;99.90
20380;DHT22;10349;48.666;8.948;2023-02-24T07:11:22;7.10;99.90
20380;DHT22;10349;48.666;8.948;2023-02-24T07:13:49;7.10;99.90
20380;DHT22;10349;48.666;8.948;2023-02-24T07:16:16;7.10;99.90
20380;DHT22;10349;48.666;8.948;2023-02-24T07:18:43;7.20;99.90
20380;DHT22;10349;48.666;8.948;2023-02-24T07:21:13;7.20;99.90
20380;DHT22;10349;48.666;8.948;2023-02-24T07:23:42;7.20;99.90
20380;DHT22;10349;48.666;8.948;2023-02-24T07:26:10;7.30;99.90
20380;DHT22;10349;48.666;8.948;2023-02-24T07:28:42;7.20;99.90
20380;DHT22;10349;48.666;8.948;2023-02-24T07:31:10;7.20;99.90
20380;DHT22;10349;48.666;8.948;2023-02-24T07:33:40;7.10;99.90
20380;DHT22;10349;48.666;8.948;2023-02-24T07:36:10;7.10;99.90
20380;DHT22;10349;48.666;8.948;2023-02-24T07:38:43;7.10;99.90
20380;DHT22;10349;48.666;8.948;2023-02-24T07:41:11;7.00;99.90
20380;DHT22;10349;48.666;8.948;2023-02-24T07:43:39;7.00;99.90
20380;DHT22;10349;48.666;8.948;2023-02-24T07:46:10;7.00;99.90
20380;DHT22;10349;48.666;8.948;2023-02-24T07:48:37;7.00;99.90
20380;DHT22;10349;48.666;8.948;2023-02-24T07:51:08;7.00;99.90
20380;DHT22;10349;48.666;8.948;2023-02-24T07:53:35;7.00;99.90
20380;DHT22;10349;48.666;8.948;2023-02-24T07:56:11;6.90;99.90
20380;DHT22;10349;48.666;8.948;2023-02-24T07:58:46;6.90;99.90
20380;DHT22;10349;48.666;8.948;2023-02-24T08:01:16;6.90;99.90
20380;DHT22;10349;48.666;8.948;2023-02-24T08:03:51;6.80;99.90
20380;DHT22;10349;48.666;8.948;2023-02-24T08:06:21;6.80;99.90
20380;DHT22;10349;48.666;8.948;2023-02-24T08:09:04;6.90;99.90
20380;DHT22;10349;48.666;8.948;2023-02-24T08:11:50;6.90;99.90
20380;DHT22;10349;48.666;8.948;2023-02-24T08:14:19;6.90;99.90
20380;DHT22;10349;48.666;8.948;2023-02-24T08:16:54;6.80;99.90
20380;DHT22;10349;48.666;8.948;2023-02-24T08:19:28;6.80;99.90
20380;DHT22;10349;48.666;8.948;2023-02-24T08:22:09;6.80;99.90
20380;DHT22;10349;48.666;8.948;2023-02-24T08:25:04;6.90;99.90
20380;DHT22;10349;48.666;8.948;2023-02-24T08:27:34;6.80;99.90
20380;DHT22;10349;48.666;8.948;2023-02-24T08:30:05;6.70;99.90
20380;DHT22;10349;48.666;8.948;2023-02-24T08:32:38;6.70;99.90
20380;DHT22;10349;48.666;8.948;2023-02-24T08:35:08;6.70;99.90
20380;DHT22;10349;48.666;8.948;2023-02-24T08:37:41;6.60;99.90
20380;DHT22;10349;48.666;8.948;2023-02-24T08:40:16;6.60;99.90
20380;DHT22;10349;48.666;8.948;2023-02-24T08:43:11;6.60;99.90
20380;DHT22;10349;48.666;8.948;2023-02-24T08:45:48;6.70;99.90
20380;DHT22;10349;48.666;8.948;2023-02-24T08:48:23;6.70;99.90
20380;DHT22;10349;48.666;8.948;2023-02-24T08:51:00;6.60;99.90
20380;DHT22;10349;48.666;8.948;2023-02-24T08:53:26;6.70;99.90
20380;DHT22;10349;48.666;8.948;2023-02-24T08:56:01;6.70;99.90
20380;DHT22;10349;48.666;8.948;2023-02-24T08:58:41;6.60;99.90
20380;DHT22;10349;48.666;8.948;2023-02-24T09:01:19;6.70;99.90
20380;DHT22;10349;48.666;8.948;2023-02-24T09:03:51;6.70;99.90
20380;DHT22;10349;48.666;8.948;2023-02-24T09:06:20;6.80;99.90
20380;DHT22;10349;48.666;8.948;2023-02-24T09:08:51;6.90;99.90
20380;DHT22;10349;48.666;8.948;2023-02-24T09:11:39;6.90;99.90
20380;DHT22;10349;48.666;8.948;2023-02-24T09:14:13;7.00;99.90
20380;DHT22;10349;48.666;8.948;2023-02-24T09:16:47;7.10;99.90
20380;DHT22;10349;48.666;8.948;2023-02-24T09:19:44;7.10;99.90
20380;DHT22;10349;48.666;8.948;2023-02-24T09:22:11;7.20;99.90
20380;DHT22;10349;48.666;8.948;2023-02-24T09:24:42;7.10;99.90
20380;DHT22;10349;48.666;8.948;2023-02-24T09:27:10;7.00;99.90
20380;DHT22;10349;48.666;8.948;2023-02-24T09:29:41;7.10;99.90
20380;DHT22;10349;48.666;8.948;2023-02-24T09:32:14;7.20;99.90
20380;DHT22;10349;48.666;8.948;2023-02-24T09:34:41;7.20;99.90
20380;DHT22;10349;48.666;8.948;2023-02-24T09:37:11;7.30;99.90
20380;DHT22;10349;48.666;8.948;2023-02-24T09:39:53;7.30;99.90
20380;DHT22;10349;48.666;8.948;2023-02-24T09:42:27;7.40;99.90
20380;DHT22;10349;48.666;8.948;2023-02-24T09:44:57;7.50;99.90
20380;DHT22;10349;48.666;8.948;2023-02-24T09:47:44;7.50;99.90
20380;DHT22;10349;48.666;8.948;2023-02-24T09:52:54;7.60;99.90
20380;DHT22;10349;48.666;8.948;2023-02-24T09:58:05;7.70;99.90
20380;DHT22;10349;48.666;8.948;2023-02-24T10:03:34;7.90;99.90
20380;DHT22;10349;48.666;8.948;2023-02-24T10:06:12;8.00;99.90
20380;DHT22;10349;48.666;8.948;2023-02-24T10:08:47;8.10;99.90
20380;DHT22;10349;48.666;8.948;2023-02-24T10:11:15;8.20;99.90
20380;DHT22;10349;48.666;8.948;2023-02-24T10:13:47;8.30;99.90
20380;DHT22;10349;48.666;8.948;2023-02-24T10:16:19;8.40;99.90
20380;DHT22;10349;48.666;8.948;2023-02-24T10:19:03;8.50;99.90
20380;DHT22;10349;48.666;8.948;2023-02-24T10:24:43;8.70;99.90
20380;DHT22;10349;48.666;8.948;2023-02-24T10:27:22;8.80;99.90
20380;DHT22;10349;48.666;8.948;2023-02-24T10:29:57;8.90;99.90
20380;DHT22;10349;48.666;8.948;2023-02-24T10:32:44;9.00;99.90
20380;DHT22;10349;48.666;8.948;2023-02-24T10:35:18;9.10;99.90
20380;DHT22;10349;48.666;8.948;2023-02-24T10:37:44;9.20;99.90
20380;DHT22;10349;48.666;8.948;2023-02-24T10:40:11;9.30;99.90
20380;DHT22;10349;48.666;8.948;2023-02-24T10:43:08;9.40;99.90
20380;DHT22;10349;48.666;8.948;2023-02-24T10:45:38;9.50;99.90
20380;DHT22;10349;48.666;8.948;2023-02-24T10:48:16;9.50;99.90
20380;DHT22;10349;48.666;8.948;2023-02-24T10:50:53;9.50;99.90
20380;DHT22;10349;48.666;8.948;2023-02-24T10:53:23;9.60;99.90
20380;DHT22;10349;48.666;8.948;2023-02-24T10:56:06;9.60;99.90
20380;DHT22;10349;48.666;8.948;2023-02-24T10:59:12;9.60;99.90
20380;DHT22;10349;48.666;8.948;2023-02-24T11:02:02;9.70;99.90
20380;DHT22;10349;48.666;8.948;2023-02-24T11:04:52;9.80;99.90
20380;DHT22;10349;48.666;8.948;2023-02-24T11:07:29;9.80;99.90
20380;DHT22;10349;48.666;8.948;2023-02-24T11:10:12;9.80;99.90
20380;DHT22;10349;48.666;8.948;2023-02-24T11:12:46;9.70;99.90
20380;DHT22;10349;48.666;8.948;2023-02-24T11:15:56;9.70;99.90
20380;DHT22;10349;48.666;8.948;2023-02-24T11:18:45;9.60;99.90
20380;DHT22;10349;48.666;8.948;2023-02-24T11:21:15;9.50;99.90
20380;DHT22;10349;48.666;8.948;2023-02-24T11:23:55;9.30;99.90
20380;DHT22;10349;48.666;8.948;2023-02-24T11:26:35;9.20;99.90
20380;DHT22;10349;48.666;8.948;2023-02-24T11:29:05;9.20;99.90
20380;DHT22;10349;48.666;8.948;2023-02-24T11:40:22;9.30;99.90
20380;DHT22;10349;48.666;8.948;2023-02-24T11:47:53;9.30;99.90
20380;DHT22;10349;48.666;8.948;2023-02-24T11:50:52;9.30;99.90
20380;DHT22;10349;48.666;8.948;2023-02-24T11:55:59;9.40;99.90
20380;DHT22;10349;48.666;8.948;2023-02-24T11:59:15;9.40;99.90
20380;DHT22;10349;48.666;8.948;2023-02-24T12:01:35;9.40;99.90
20380;DHT22;10349;48.666;8.948;2023-02-24T12:04:22;9.50;99.90
20380;DHT22;10349;48.666;8.948;2023-02-24T12:09:38;9.60;99.90
20380;DHT22;10349;48.666;8.948;2023-02-24T12:14:36;9.70;99.90
20380;DHT22;10349;48.666;8.948;2023-02-24T12:19:59;9.80;99.90
20380;DHT22;10349;48.666;8.948;2023-02-24T12:22:42;9.90;99.90
20380;DHT22;10349;48.666;8.948;2023-02-24T12:25:12;10.00;99.90
20380;DHT22;10349;48.666;8.948;2023-02-24T12:28:08;10.10;99.90
20380;DHT22;10349;48.666;8.948;2023-02-24T12:36:58;10.20;99.90
20380;DHT22;10349;48.666;8.948;2023-02-24T12:42:17;10.20;99.90
20380;DHT22;10349;48.666;8.948;2023-02-24T12:44:59;10.10;99.90
20380;DHT22;10349;48.666;8.948;2023-02-24T12:47:43;10.00;99.90
20380;DHT22;10349;48.666;8.948;2023-02-24T12:56:23;10.00;99.90
20380;DHT22;10349;48.666;8.948;2023-02-24T12:58:58;10.00;99.90
20380;DHT22;10349;48.666;8.948;2023-02-24T13:04:32;10.10;99.90
20380;DHT22;10349;48.666;8.948;2023-02-24T13:07:27;10.20;99.90
20380;DHT22;10349;48.666;8.948;2023-02-24T13:12:51;10.20;99.90
20380;DHT22;10349;48.666;8.948;2023-02-24T13:15:22;10.20;99.90
20380;DHT22;10349;48.666;8.948;2023-02-24T13:17:51;10.30;99.90
20380;DHT22;10349;48.666;8.948;2023-02-24T13:20:33;10.30;99.90
20380;DHT22;10349;48.666;8.948;2023-02-24T13:23:01;10.40;99.90
20380;DHT22;10349;48.666;8.948;2023-02-24T13:25:35;10.30;99.90
20380;DHT22;10349;48.666;8.948;2023-02-24T13:28:24;10.30;99.90
20380;DHT22;10349;48.666;8.948;2023-02-24T13:33:33;10.20;99.90
20380;DHT22;10349;48.666;8.948;2023-02-24T13:38:37;10.10;99.90
20380;DHT22;10349;48.666;8.948;2023-02-24T13:41:22;10.10;99.90
20380;DHT22;10349;48.666;8.948;2023-02-24T13:43:55;10.10;99.90
20380;DHT22;10349;48.666;8.948;2023-02-24T13:46:21;10.10;99.90
20380;DHT22;10349;48.666;8.948;2023-02-24T13:49:03;10.10;99.90
20380;DHT22;10349;48.666;8.948;2023-02-24T13:52:01;10.10;99.90
20380;DHT22;10349;48.666;8.948;2023-02-24T13:58:02;10.10;99.90
20380;DHT22;10349;48.666;8.948;2023-02-24T14:03:10;10.10;99.90
20380;DHT22;10349;48.666;8.948;2023-02-24T14:05:40;10.10;99.90
20380;DHT22;10349;48.666;8.948;2023-02-24T14:08:40;10.10;99.90
20380;DHT22;10349;48.666;8.948;2023-02-24T14:11:02;10.10;99.90
20380;DHT22;10349;48.666;8.948;2023-02-24T14:13:30;10.10;99.90
20380;DHT22;10349;48.666;8.948;2023-02-24T14:16:00;10.00;99.90
20380;DHT22;10349;48.666;8.948;2023-02-24T14:18:28;10.10;99.90
20380;DHT22;10349;48.666;8.948;2023-02-24T14:20:55;10.10;99.90
20380;DHT22;10349;48.666;8.948;2023-02-24T14:23:26;10.10;99.90
20380;DHT22;10349;48.666;8.948;2023-02-24T14:26:06;10.10;99.90
20380;DHT22;10349;48.666;8.948;2023-02-24T14:28:35;10.00;99.90
20380;DHT22;10349;48.666;8.948;2023-02-24T14:31:10;10.00;99.90
20380;DHT22;10349;48.666;8.948;2023-02-24T14:33:39;10.00;99.90
20380;DHT22;10349;48.666;8.948;2023-02-24T14:36:22;10.00;99.90
20380;DHT22;10349;48.666;8.948;2023-02-24T14:41:34;9.90;99.90
20380;DHT22;10349;48.666;8.948;2023-02-24T14:46:51;9.80;99.90
20380;DHT22;10349;48.666;8.948;2023-02-24T14:49:22;9.80;99.90
20380;DHT22;10349;48.666;8.948;2023-02-24T14:51:55;9.80;99.90
20380;DHT22;10349;48.666;8.948;2023-02-24T14:54:38;9.80;99.90
20380;DHT22;10349;48.666;8.948;2023-02-24T14:57:11;9.80;99.90
20380;DHT22;10349;48.666;8.948;2023-02-24T14:59:38;9.70;99.90
20380;DHT22;10349;48.666;8.948;2023-02-24T15:02:16;9.70;99.90
20380;DHT22;10349;48.666;8.948;2023-02-24T15:04:45;9.80;99.90
20380;DHT22;10349;48.666;8.948;2023-02-24T15:07:32;9.80;99.90
20380;DHT22;10349;48.666;8.948;2023-02-24T15:09:59;9.90;99.90
20380;DHT22;10349;48.666;8.948;2023-02-24T15:12:31;9.90;99.90
20380;DHT22;10349;48.666;8.948;2023-02-24T15:15:06;9.90;99.90
20380;DHT22;10349;48.666;8.948;2023-02-24T15:17:37;9.90;99.90
20380;DHT22;10349;48.666;8.948;2023-02-24T15:22:49;9.90;99.90
20380;DHT22;10349;48.666;8.948;2023-02-24T15:27:55;10.00;99.90
20380;DHT22;10349;48.666;8.948;2023-02-24T15:33:20;9.60;99.90
20380;DHT22;10349;48.666;8.948;2023-02-24T15:35:50;9.50;99.90
20380;DHT22;10349;48.666;8.948;2023-02-24T15:38:29;9.50;99.90
20380;DHT22;10349;48.666;8.948;2023-02-24T15:40:58;9.40;99.90
20380;DHT22;10349;48.666;8.948;2023-02-24T15:43:44;9.30;99.90
20380;DHT22;10349;48.666;8.948;2023-02-24T15:46:31;9.20;99.90
20380;DHT22;10349;48.666;8.948;2023-02-24T15:48:57;9.20;99.90
20380;DHT22;10349;48.666;8.948;2023-02-24T15:51:48;9.10;99.90
20380;DHT22;10349;48.666;8.948;2023-02-24T15:54:34;9.00;99.90
20380;DHT22;10349;48.666;8.948;2023-02-24T15:57:01;9.10;99.90
20380;DHT22;10349;48.666;8.948;2023-02-24T15:59:27;9.00;99.90
20380;DHT22;10349;48.666;8.948;2023-02-24T16:01:54;9.00;99.90
20380;DHT22;10349;48.666;8.948;2023-02-24T16:04:21;8.90;99.90
20380;DHT22;10349;48.666;8.948;2023-02-24T16:06:55;8.90;99.90
20380;DHT22;10349;48.666;8.948;2023-02-24T16:09:33;8.80;99.90
20380;DHT22;10349;48.666;8.948;2023-02-24T16:12:14;8.80;99.90
20380;DHT22;10349;48.666;8.948;2023-02-24T16:14:41;8.70;99.90
20380;DHT22;10349;48.666;8.948;2023-02-24T16:17:28;8.70;99.90
20380;DHT22;10349;48.666;8.948;2023-02-24T16:19:54;8.60;99.90
20380;DHT22;10349;48.666;8.948;2023-02-24T16:22:22;8.50;99.90
20380;DHT22;10349;48.666;8.948;2023-02-24T16:24:47;8.50;99.90
20380;DHT22;10349;48.666;8.948;2023-02-24T16:27:19;8.50;99.90
20380;DHT22;10349;48.666;8.948;2023-02-24T16:29:45;8.50;99.90
20380;DHT22;10349;48.666;8.948;2023-02-24T16:32:12;8.40;99.90
20380;DHT22;10349;48.666;8.948;2023-02-24T16:34:38;8.40;99.90
20380;DHT22;10349;48.666;8.948;2023-02-24T16:37:14;8.30;99.90
20380;DHT22;10349;48.666;8.948;2023-02-24T16:39:40;8.20;99.90
20380;DHT22;10349;48.666;8.948;2023-02-24T16:42:07;8.30;99.90
20380;DHT22;10349;48.666;8.948;2023-02-24T16:44:33;8.20;99.90
20380;DHT22;10349;48.666;8.948;2023-02-24T16:46:59;8.20;99.90
20380;DHT22;10349;48.666;8.948;2023-02-24T16:49:26;8.10;99.90
20380;DHT22;10349;48.666;8.948;2023-02-24T16:51:52;8.10;99.90
20380;DHT22;10349;48.666;8.948;2023-02-24T16:54:17;8.10;99.90
20380;DHT22;10349;48.666;8.948;2023-02-24T16:56:46;8.00;99.90
20380;DHT22;10349;48.666;8.948;2023-02-24T16:59:12;7.90;99.90
20380;DHT22;10349;48.666;8.948;2023-02-24T17:01:38;7.80;99.90
20380;DHT22;10349;48.666;8.948;2023-02-24T17:04:05;7.80;99.90
20380;DHT22;10349;48.666;8.948;2023-02-24T17:06:34;7.80;99.90
20380;DHT22;10349;48.666;8.948;2023-02-24T17:09:00;7.80;99.90
20380;DHT22;10349;48.666;8.948;2023-02-24T17:11:27;7.70;99.90
20380;DHT22;10349;48.666;8.948;2023-02-24T17:13:53;7.60;99.90
20380;DHT22;10349;48.666;8.948;2023-02-24T17:16:19;7.60;99.90
20380;DHT22;10349;48.666;8.948;2023-02-24T17:18:45;7.50;99.90
20380;DHT22;10349;48.666;8.948;2023-02-24T17:21:14;7.50;99.90
20380;DHT22;10349;48.666;8.948;2023-02-24T17:23:42;7.50;99.90
20380;DHT22;10349;48.666;8.948;2023-02-24T17:26:12;7.40;99.90
20380;DHT22;10349;48.666;8.948;2023-02-24T17:28:40;7.40;99.90
20380;DHT22;10349;48.666;8.948;2023-02-24T17:31:05;7.40;99.90
20380;DHT22;10349;48.666;8.948;2023-02-24T17:33:34;7.30;99.90
20380;DHT22;10349;48.666;8.948;2023-02-24T17:35:59;7.30;99.90
20380;DHT22;10349;48.666;8.948;2023-02-24T17:38:25;7.30;99.90
20380;DHT22;10349;48.666;8.948;2023-02-24T17:40:51;7.30;99.90
20380;DHT22;10349;48.666;8.948;2023-02-24T17:43:17;7.30;99.90
20380;DHT22;10349;48.666;8.948;2023-02-24T17:45:45;7.30;99.90
20380;DHT22;10349;48.666;8.948;2023-02-24T17:48:12;7.20;99.90
20380;DHT22;10349;48.666;8.948;2023-02-24T17:50:42;7.20;99.90
20380;DHT22;10349;48.666;8.948;2023-02-24T17:53:08;7.00;99.90
20380;DHT22;10349;48.666;8.948;2023-02-24T17:55:34;7.00;99.90
20380;DHT22;10349;48.666;8.948;2023-02-24T17:58:00;6.90;99.90
20380;DHT22;10349;48.666;8.948;2023-02-24T18:00:26;6.90;99.90
20380;DHT22;10349;48.666;8.948;2023-02-24T18:02:52;6.90;99.90
20380;DHT22;10349;48.666;8.948;2023-02-24T18:05:18;6.90;99.90
20380;DHT22;10349;48.666;8.948;2023-02-24T18:07:43;6.90;99.90
20380;DHT22;10349;48.666;8.948;2023-02-24T18:10:10;6.90;99.90
20380;DHT22;10349;48.666;8.948;2023-02-24T18:12:36;6.90;99.90
20380;DHT22;10349;48.666;8.948;2023-02-24T18:15:03;6.90;99.90
20380;DHT22;10349;48.666;8.948;2023-02-24T18:17:29;6.90;99.90